Flight Track Log - Related Links

Times and Time Zones

All times are in EDT time to prevent confusion due to time zone crossing. See the SWA3937 flight status page for this flight to view local times or setup timezone preferences in your user account.

Time Position Orientation Groundspeed Altitude Reporting Facility
EDT Latitude Longitude Course Direction KTS MPH feet Rate Location/Type
Sun 02:30:22 PM 33.4333 -112.0333 257° West 188 216 1,900  Level Phoenix TRACON
Sun 02:31:34 PM 33.4167 -112.1167 257° West 222 255 4,500 2,283 Climbing Phoenix TRACON
Sun 02:32:15 PM 33.3956 -112.1458 229° Southwest 220 253 6,200 2,971 Climbing Albuquerque Center
Sun 02:33:17 PM 33.3594 -112.0956 131° Southeast 246 283 9,600 2,634 Climbing Albuquerque Center
Sun 02:34:18 PM 33.3714 -111.9819 83° East 314 361 11,600 2,341 Climbing Albuquerque Center
Sun 02:35:20 PM 33.3964 -111.8644 76° East 365 420 14,400 2,710 Climbing Albuquerque Center
Sun 02:36:22 PM 33.4242 -111.7400 75° East 388 447 17,200 2,758 Climbing Albuquerque Center
Sun 02:37:24 PM 33.4525 -111.6100 75° East 405 466 20,100 2,585 Climbing Albuquerque Center
Sun 02:38:25 PM 33.4814 -111.4758 75° East 419 482 22,500 2,146 Climbing Albuquerque Center
Sun 02:39:27 PM 33.5083 -111.3336 77° East 437 503 24,500 2,129 Climbing Albuquerque Center
Sun 02:40:29 PM 33.5275 -111.1514 83° East 461 531 26,900 2,032 Climbing Albuquerque Center
Sun 02:41:31 PM 33.5450 -110.9944 82° East 476 548 28,700 1,887 Climbing Albuquerque Center
Sun 02:42:33 PM 33.5742 -110.8389 77° East 480 552 30,800 2,000 Climbing Albuquerque Center
Sun 02:43:34 PM 33.6208 -110.6914 69° East 484 557 32,800 1,073 Climbing Albuquerque Center
Sun 02:44:36 PM 33.6533 -110.5367 76° East 483 556 33,000 97 Climbing Albuquerque Center
Sun 02:45:38 PM 33.6900 -110.3503 77° East 486 559 33,000  Level Albuquerque Center
Sun 02:46:40 PM 33.7236 -110.1917 76° East 491 565 33,000  Level Albuquerque Center
Sun 02:47:42 PM 33.7583 -110.0319 75° East 494 568 33,000  Level Albuquerque Center
Sun 02:48:43 PM 33.7903 -109.8700 77° East 500 575 33,000  Level Albuquerque Center
Sun 02:49:45 PM 33.8236 -109.7089 76° East 500 575 33,000  Level Albuquerque Center
Sun 02:50:47 PM 33.8558 -109.5472 76° East 499 574 33,000  Level Albuquerque Center
Sun 02:51:49 PM 33.8953 -109.3536 76° East 500 575 33,000  Level Albuquerque Center
Sun 02:52:50 PM 33.9272 -109.1939 76° East 496 571 33,000  Level Albuquerque Center
Sun 02:53:52 PM 33.9592 -109.0303 77° East 500 575 33,000  Level Albuquerque Center
Sun 02:54:54 PM 33.9914 -108.8686 76° East 500 575 33,000  Level Albuquerque Center
Sun 02:55:56 PM 34.0236 -108.7053 77° East 502 578 33,000  Level Albuquerque Center
Sun 02:56:58 PM 34.0542 -108.5417 77° East 503 579 33,000  Level Albuquerque Center
Sun 02:57:59 PM 34.0925 -108.3450 77° East 504 580 33,000  Level Albuquerque Center
Sun 02:59:01 PM 34.1228 -108.1831 77° East 501 577 33,000  Level Albuquerque Center
Sun 03:00:03 PM 34.1492 -108.0328 78° East 502 578 33,000  Level Albuquerque Center
Sun 03:01:05 PM 34.1803 -107.8686 77° East 501 577 33,000  Level Albuquerque Center
Sun 03:02:06 PM 34.2100 -107.6694 80° East 502 578 33,000  Level Albuquerque Center
Sun 03:03:08 PM 34.2361 -107.5028 79° East 503 579 33,000  Level Albuquerque Center
Sun 03:04:10 PM 34.2619 -107.3358 79° East 505 581 33,000  Level Albuquerque Center
Sun 03:05:12 PM 34.2886 -107.1656 79° East 510 587 33,000  Level Albuquerque Center
Sun 03:06:14 PM 34.3169 -106.9856 79° East 503 579 33,000  Level Albuquerque Center
Sun 03:07:15 PM 34.3428 -106.8169 79° East 509 586 33,000  Level Albuquerque Center
Sun 03:08:17 PM 34.3672 -106.6461 80° East 517 595 33,000  Level Albuquerque Center
Sun 03:09:19 PM 34.3908 -106.4775 80° East 514 592 33,000  Level Albuquerque Center
Sun 03:10:21 PM 34.4158 -106.3106 80° East 511 588 33,000  Level Albuquerque Center
Sun 03:11:23 PM 34.4414 -106.1306 80° East 504 580 33,000  Level Albuquerque Center
Sun 03:12:24 PM 34.4661 -105.9594 80° East 508 585 33,000  Level Albuquerque Center
Sun 03:13:26 PM 34.4947 -105.7608 80° East 510 587 33,000  Level Albuquerque Center
Sun 03:14:28 PM 34.5181 -105.5906 81° East 509 586 33,000  Level Albuquerque Center
Sun 03:15:30 PM 34.5406 -105.4211 81° East 507 583 33,000  Level Albuquerque Center
Sun 03:16:31 PM 34.5650 -105.2519 80° East 506 582 33,000  Level Albuquerque Center
Sun 03:17:33 PM 34.5869 -105.0831 81° East 504 580 33,000  Level Albuquerque Center
Sun 03:18:35 PM 34.6097 -104.9139 81° East 505 581 33,000  Level Albuquerque Center
Sun 03:19:37 PM 34.6331 -104.7447 80° East 505 581 33,000  Level Albuquerque Center
Sun 03:20:39 PM 34.6564 -104.5753 80° East 506 582 33,000  Level Albuquerque Center
Sun 03:21:40 PM 34.6825 -104.3769 81° East 509 586 33,000  Level Albuquerque Center
Sun 03:22:42 PM 34.7044 -104.2053 81° East 512 589 33,000  Level Albuquerque Center
Sun 03:23:44 PM 34.7258 -104.0317 81° East 516 594 33,000  Level Albuquerque Center
Sun 03:24:46 PM 34.7478 -103.8583 81° East 518 596 33,000  Level Albuquerque Center
Sun 03:25:48 PM 34.7703 -103.6842 81° East 520 598 33,000  Level Albuquerque Center
Sun 03:26:50 PM 34.7903 -103.5103 82° East 518 596 33,000 293 Level Albuquerque Center
Sun 03:27:51 PM 34.8158 -103.3081 81° East 517 595 33,600 1,171 Climbing Albuquerque Center
Sun 03:28:53 PM 34.8372 -103.1328 81° East 519 597 35,400 1,597 Climbing Albuquerque Center
Sun 03:29:55 PM 34.8583 -102.9603 81° East 515 593 36,900 1,403 Climbing Albuquerque Center
Sun 03:30:57 PM 34.8764 -102.7872 83° East 512 589 38,300 1,024 Climbing Albuquerque Center
Sun 03:31:58 PM 34.8958 -102.6100 82° East 506 582 39,000 341 Climbing Albuquerque Center
Sun 03:33:00 PM 34.9153 -102.4425 82° East 503 579 39,000  Level Albuquerque Center
Sun 03:34:02 PM 34.9339 -102.2767 82° East 498 573 39,000  Level Albuquerque Center
Sun 03:35:04 PM 34.9528 -102.1106 82° East 498 573 39,000  Level Albuquerque Center
Sun 03:36:05 PM 34.9694 -101.9464 83° East 495 570 39,000  Level Albuquerque Center
Sun 03:37:07 PM 34.9911 -101.7497 82° East 493 567 39,000  Level Albuquerque Center
Sun 03:38:09 PM 35.0097 -101.5908 82° East 493 567 39,000  Level Albuquerque Center
Sun 03:39:11 PM 35.0258 -101.4244 83° East 494 568 39,000  Level Albuquerque Center
Sun 03:40:12 PM 35.0417 -101.2592 83° East 495 570 39,000  Level Albuquerque Center
Sun 03:41:14 PM 35.0589 -101.0928 83° East 496 571 39,000  Level Albuquerque Center
Sun 03:42:16 PM 35.0794 -100.8939 83° East 496 571 39,000  Level Albuquerque Center
Sun 03:43:18 PM 35.0956 -100.7272 83° East 496 571 39,000  Level Albuquerque Center
Sun 03:44:20 PM 35.1119 -100.5583 83° East 501 577 39,000  Level Albuquerque Center
Sun 03:45:22 PM 35.1283 -100.3897 83° East 502 578 39,000  Level Albuquerque Center
Sun 03:46:23 PM 35.1444 -100.2139 84° East 502 578 39,000  Level Albuquerque Center
Sun 03:47:25 PM 35.1611 -100.0428 83° East 506 582 39,000  Level Albuquerque Center
Sun 03:48:27 PM 35.1758 -99.8733 84° East 504 580 39,000  Level Albuquerque Center
Sun 03:49:29 PM 35.1911 -99.7028 84° East 505 581 39,000  Level Albuquerque Center
Sun 03:50:31 PM 35.2089 -99.4997 84° East 504 580 39,000  Level Albuquerque Center
Sun 03:51:33 PM 35.2236 -99.3331 84° East 498 573 39,000  Level Albuquerque Center
Sun 03:51:51 PM 35.2272 -99.2892 84° East 501 577 39,000  Level Fort Worth Center
Sun 03:52:51 PM 35.2403 -99.1217 85° East 501 577 39,000  Level Fort Worth Center
Sun 03:53:51 PM 35.2547 -98.9542 84° East 501 577 39,000  Level Fort Worth Center
Sun 03:54:51 PM 35.2672 -98.7867 85° East 501 577 39,000  Level Fort Worth Center
Sun 03:55:51 PM 35.2814 -98.6217 84° East 501 577 39,000  Level Fort Worth Center
Sun 03:56:51 PM 35.2956 -98.4589 84° East 494 568 39,000  Level Fort Worth Center
Sun 03:57:51 PM 35.3072 -98.2911 85° East 489 563 39,000  Level Fort Worth Center
Sun 03:58:51 PM 35.3208 -98.1233 84° East 489 563 39,000  Level Fort Worth Center
Sun 03:59:51 PM 35.3342 -97.9581 84° East 489 563 39,000  Level Fort Worth Center
Sun 04:00:51 PM 35.3431 -97.7928 86° East 489 563 39,000  Level Fort Worth Center
Sun 04:01:51 PM 35.3539 -97.6247 85° East 489 563 39,000  Level Fort Worth Center
Sun 04:02:51 PM 35.3436 -97.4492 94° East 496 571 39,000  Level Fort Worth Center
Sun 04:03:51 PM 35.3228 -97.2786 98° East 506 582 39,000  Level Fort Worth Center
Sun 04:04:51 PM 35.3017 -97.0881 98° East 514 592 39,000  Level Fort Worth Center
Sun 04:05:51 PM 35.2844 -96.9203 97° East 508 585 39,000  Level Fort Worth Center
Sun 04:06:51 PM 35.2647 -96.7525 98° East 503 579 39,000  Level Fort Worth Center
Sun 04:07:51 PM 35.2472 -96.5875 97° East 503 579 39,000  Level Fort Worth Center
Sun 04:08:51 PM 35.2292 -96.4197 97° East 503 579 39,000  Level Fort Worth Center
Sun 04:09:51 PM 35.2111 -96.2547 98° East 503 579 39,000  Level Fort Worth Center
Sun 04:10:51 PM 35.1908 -96.0900 99° East 503 579 39,000  Level Fort Worth Center
Sun 04:11:51 PM 35.1722 -95.9253 98° East 498 573 39,000  Level Fort Worth Center
Sun 04:12:51 PM 35.1556 -95.7606 97° East 498 573 39,000  Level Fort Worth Center
Sun 04:13:51 PM 35.1344 -95.5983 99° East 492 566 39,000  Level Fort Worth Center
Sun 04:16:08 PM 35.0889 -95.2419 99° East 486 559 39,000  Level Memphis Center
Sun 04:17:08 PM 35.0683 -95.0786 99° East 486 559 39,000  Level Memphis Center
Sun 04:18:08 PM 35.0472 -94.9150 99° East 486 559 39,000 -150 Level Memphis Center
Sun 04:19:08 PM 35.0239 -94.7489 100° East 486 559 38,700 -1,250 Descending Memphis Center
Sun 04:20:08 PM 34.9986 -94.5728 100° East 491 565 36,500 -2,500 Descending Memphis Center
Sun 04:21:08 PM 34.9792 -94.4044 98° East 491 565 33,700 -2,900 Descending Memphis Center
Sun 04:22:08 PM 34.9556 -94.2311 99° East 498 573 30,700 -2,700 Descending Memphis Center
Sun 04:23:08 PM 34.9358 -94.0581 98° East 509 586 28,300 -2,550 Descending Memphis Center
Sun 04:24:08 PM 34.9156 -93.8950 99° East 504 580 25,600 -2,750 Descending Memphis Center
Sun 04:25:08 PM 34.9075 -93.7375 94° East 484 557 22,800 -2,550 Descending Memphis Center
Sun 04:26:08 PM 34.9281 -93.5839 81° East 463 533 20,500 -2,250 Descending Memphis Center
Sun 04:27:08 PM 34.9547 -93.4406 77° East 444 511 18,300 -2,200 Descending Memphis Center
Sun 04:28:08 PM 34.9789 -93.2994 78° East 431 496 16,100 -1,650 Descending Memphis Center
Sun 04:29:08 PM 35.0008 -93.1711 78° East 414 476 15,000 -1,350 Descending Memphis Center
Sun 04:30:08 PM 35.0283 -93.0528 74° East 384 442 13,400 -1,685 Descending Memphis Center
Sun 04:30:37 PM 35.0378 -92.9997 78° East 364 419 12,500 -1,800 Descending Memphis Center
Sun 04:31:08 PM 35.0517 -92.9342 75° East 371 427 11,600 -1,455 Descending Memphis Center
Sun 04:31:43 PM 35.0300 -92.8753 114° Southeast 333 383 10,900 -900 Descending Memphis Center
Sun 04:32:08 PM 35.0161 -92.8342 112° Southeast 321 369 10,700 -984 Descending Memphis Center
Sun 04:32:44 PM 34.9858 -92.7828 126° Southeast 325 374 9,900 -1,200 Descending Memphis Center
Sun 04:33:08 PM 34.9658 -92.7392 119° Southeast 312 359 9,500 -896 Descending Memphis Center
Sun 04:33:51 PM 34.9336 -92.6825 125° Southeast 306 352 8,900 -800 Descending Memphis Center
Sun 04:34:08 PM 34.9236 -92.6517 112° Southeast 312 359 8,700 -1,000 Descending Memphis Center
Sun 04:34:51 PM 34.9019 -92.5878 112° Southeast 289 333 7,900 -1,200 Descending Memphis Center
Sun 04:35:08 PM 34.8983 -92.5600 99° East 300 345 7,500 -1,574 Descending Memphis Center
Sun 04:35:52 PM 34.8911 -92.4914 97° East 299 344 6,300 -1,400 Descending Memphis Center
Sun 04:36:08 PM 34.8875 -92.4608 98° East 291 335 6,100 -1,091 Descending Memphis Center
Sun 04:36:47 PM 34.8800 -92.4000 99° East 287 330 5,300 -1,200 Descending Memphis Center
Sun 04:37:08 PM 34.8786 -92.3694 93° East 285 328 4,900 -1,200 Descending Memphis Center
Sun 04:37:47 PM 34.8692 -92.3111 101° East 269 310 4,100 -984 Descending Memphis Center
Sun 04:38:09 PM 34.8675 -92.2756 93° East 274 315 3,900 -1,082 Descending Memphis Center
Sun 04:38:48 PM 34.8600 -92.2172 99° East 265 305 3,000 -915 Descending Memphis Center
Sun 04:39:08 PM 34.8564 -92.1894 99° East 269 310 3,000 -333 Level Memphis Center
Sun 04:39:42 PM 34.8294 -92.1608 139° Southeast 234 269 2,700 -400 Descending Memphis Center
Sun 04:40:08 PM 34.8133 -92.1353 128° Southeast 225 259 2,600 -436 Descending Memphis Center
Sun 04:40:37 PM 34.7883 -92.1347 179° South 179 206 2,300 -700 Descending Memphis Center
Sun 04:41:08 PM 34.7775 -92.1472 223° Southwest 125 144 1,900 -1,180 Descending Memphis Center
Sun 04:41:38 PM 34.7586 -92.1722 227° Southwest 132 152 1,100 -800 Descending Memphis Center
Sun 04:42:08 PM 34.7461 -92.1567 134° Southeast 125 144 1,100 -873 Level Memphis Center
Sun 04:42:33 PM 34.7331 -92.2019 251° West 136 157 300 -1,920 Descending Memphis Center
Sun 04:47:00 PM 34.7167 -92.2167 321° Northwest  Level FlightAware Approximate
Sun 04:54:00 PM 34.7294 -92.2248 321° Northwest  Level Estimated
Sun 04:55:00 PM 34.7294 -92.2248 321° Northwest  Level Estimated
Sun 04:56:00 PM 34.7294 -92.2248 321° Northwest  Level Estimated
Sun 04:57:00 PM 34.7294 -92.2248 321° Northwest  Level Estimated
Sun 04:58:00 PM 34.7294 -92.2248 321° Northwest  Level Estimated

Login

Don't have an account? Register now (free) for customized features, flight alerts, and more!